sensor_id;sensor_type;location;lat;lon;timestamp;temperature;humidity
16118;DHT22;8163;50.118;5.342;2023-04-12T00:00:10;7.20;99.90
16118;DHT22;8163;50.118;5.342;2023-04-12T00:02:38;7.20;99.90
16118;DHT22;8163;50.118;5.342;2023-04-12T00:05:07;7.20;99.90
16118;DHT22;8163;50.118;5.342;2023-04-12T00:07:36;7.10;99.90
16118;DHT22;8163;50.118;5.342;2023-04-12T00:10:05;7.10;99.90
16118;DHT22;8163;50.118;5.342;2023-04-12T00:12:41;7.20;99.90
16118;DHT22;8163;50.118;5.342;2023-04-12T00:15:12;7.10;99.90
16118;DHT22;8163;50.118;5.342;2023-04-12T00:17:39;7.10;99.90
16118;DHT22;8163;50.118;5.342;2023-04-12T00:20:08;7.00;99.90
16118;DHT22;8163;50.118;5.342;2023-04-12T00:22:37;7.00;99.90
16118;DHT22;8163;50.118;5.342;2023-04-12T00:25:05;7.00;99.90
16118;DHT22;8163;50.118;5.342;2023-04-12T00:27:33;7.00;99.90
16118;DHT22;8163;50.118;5.342;2023-04-12T00:30:02;6.90;99.90
16118;DHT22;8163;50.118;5.342;2023-04-12T00:32:31;6.90;99.90
16118;DHT22;8163;50.118;5.342;2023-04-12T00:34:58;6.90;99.90
16118;DHT22;8163;50.118;5.342;2023-04-12T00:37:25;6.90;99.90
16118;DHT22;8163;50.118;5.342;2023-04-12T00:39:53;6.90;99.90
16118;DHT22;8163;50.118;5.342;2023-04-12T00:42:20;6.80;99.90
16118;DHT22;8163;50.118;5.342;2023-04-12T00:44:47;6.90;99.90
16118;DHT22;8163;50.118;5.342;2023-04-12T00:47:18;6.90;99.90
16118;DHT22;8163;50.118;5.342;2023-04-12T00:49:46;6.90;99.90
16118;DHT22;8163;50.118;5.342;2023-04-12T00:52:13;6.90;99.90
16118;DHT22;8163;50.118;5.342;2023-04-12T00:54:43;6.90;99.90
16118;DHT22;8163;50.118;5.342;2023-04-12T00:57:10;6.90;99.90
16118;DHT22;8163;50.118;5.342;2023-04-12T00:59:39;6.90;99.90
16118;DHT22;8163;50.118;5.342;2023-04-12T01:02:07;6.90;99.90
16118;DHT22;8163;50.118;5.342;2023-04-12T01:04:40;6.90;99.90
16118;DHT22;8163;50.118;5.342;2023-04-12T01:07:17;6.90;99.90
16118;DHT22;8163;50.118;5.342;2023-04-12T01:09:53;7.00;99.90
16118;DHT22;8163;50.118;5.342;2023-04-12T01:12:31;6.90;99.90
16118;DHT22;8163;50.118;5.342;2023-04-12T01:15:05;6.90;99.90
16118;DHT22;8163;50.118;5.342;2023-04-12T01:17:41;7.00;99.90
16118;DHT22;8163;50.118;5.342;2023-04-12T01:20:18;7.00;99.90
16118;DHT22;8163;50.118;5.342;2023-04-12T01:23:06;7.00;99.90
16118;DHT22;8163;50.118;5.342;2023-04-12T01:25:47;7.10;99.90
16118;DHT22;8163;50.118;5.342;2023-04-12T01:28:23;7.10;99.90
16118;DHT22;8163;50.118;5.342;2023-04-12T01:30:53;7.10;99.90
16118;DHT22;8163;50.118;5.342;2023-04-12T01:33:21;7.10;99.90
16118;DHT22;8163;50.118;5.342;2023-04-12T01:35:57;7.10;99.90
16118;DHT22;8163;50.118;5.342;2023-04-12T01:38:27;7.10;99.90
16118;DHT22;8163;50.118;5.342;2023-04-12T01:40:55;7.10;99.90
16118;DHT22;8163;50.118;5.342;2023-04-12T01:43:24;7.10;99.90
16118;DHT22;8163;50.118;5.342;2023-04-12T01:45:52;7.20;99.90
16118;DHT22;8163;50.118;5.342;2023-04-12T01:48:20;7.10;99.90
16118;DHT22;8163;50.118;5.342;2023-04-12T01:50:53;7.20;99.90
16118;DHT22;8163;50.118;5.342;2023-04-12T01:53:31;7.20;99.90
16118;DHT22;8163;50.118;5.342;2023-04-12T01:56:06;7.20;99.90
16118;DHT22;8163;50.118;5.342;2023-04-12T01:58:42;7.20;99.90
16118;DHT22;8163;50.118;5.342;2023-04-12T02:01:13;7.20;99.90
16118;DHT22;8163;50.118;5.342;2023-04-12T02:03:41;7.20;99.90
16118;DHT22;8163;50.118;5.342;2023-04-12T02:06:11;7.20;99.90
16118;DHT22;8163;50.118;5.342;2023-04-12T02:08:39;7.20;99.90
16118;DHT22;8163;50.118;5.342;2023-04-12T02:11:11;7.20;99.90
16118;DHT22;8163;50.118;5.342;2023-04-12T02:13:40;7.20;99.90
16118;DHT22;8163;50.118;5.342;2023-04-12T02:16:08;7.20;99.90
16118;DHT22;8163;50.118;5.342;2023-04-12T02:18:42;7.10;99.90
16118;DHT22;8163;50.118;5.342;2023-04-12T02:21:12;7.20;99.90
16118;DHT22;8163;50.118;5.342;2023-04-12T02:23:42;7.10;99.90
16118;DHT22;8163;50.118;5.342;2023-04-12T02:26:10;7.10;99.90
16118;DHT22;8163;50.118;5.342;2023-04-12T02:28:37;7.10;99.90
16118;DHT22;8163;50.118;5.342;2023-04-12T02:31:07;7.10;99.90
16118;DHT22;8163;50.118;5.342;2023-04-12T02:33:34;7.10;99.90
16118;DHT22;8163;50.118;5.342;2023-04-12T02:36:01;7.10;99.90
16118;DHT22;8163;50.118;5.342;2023-04-12T02:38:29;7.10;99.90
16118;DHT22;8163;50.118;5.342;2023-04-12T02:40:56;7.10;99.90
16118;DHT22;8163;50.118;5.342;2023-04-12T02:43:23;7.10;99.90
16118;DHT22;8163;50.118;5.342;2023-04-12T02:45:50;7.00;99.90
16118;DHT22;8163;50.118;5.342;2023-04-12T02:48:19;7.00;99.90
16118;DHT22;8163;50.118;5.342;2023-04-12T02:50:46;7.00;99.90
16118;DHT22;8163;50.118;5.342;2023-04-12T02:53:14;6.90;99.90
16118;DHT22;8163;50.118;5.342;2023-04-12T02:55:41;6.90;99.90
16118;DHT22;8163;50.118;5.342;2023-04-12T02:58:09;6.90;99.90
16118;DHT22;8163;50.118;5.342;2023-04-12T03:00:37;6.90;99.90
16118;DHT22;8163;50.118;5.342;2023-04-12T03:03:05;6.80;99.90
16118;DHT22;8163;50.118;5.342;2023-04-12T03:05:35;6.80;99.90
16118;DHT22;8163;50.118;5.342;2023-04-12T03:08:03;6.80;99.90
16118;DHT22;8163;50.118;5.342;2023-04-12T03:10:31;6.80;99.90
16118;DHT22;8163;50.118;5.342;2023-04-12T03:12:59;6.80;99.90
16118;DHT22;8163;50.118;5.342;2023-04-12T03:15:26;6.80;99.90
16118;DHT22;8163;50.118;5.342;2023-04-12T03:17:53;6.80;99.90
16118;DHT22;8163;50.118;5.342;2023-04-12T03:20:21;6.80;99.90
16118;DHT22;8163;50.118;5.342;2023-04-12T03:22:51;6.70;99.90
16118;DHT22;8163;50.118;5.342;2023-04-12T03:25:18;6.80;99.90
16118;DHT22;8163;50.118;5.342;2023-04-12T03:27:45;6.70;99.90
16118;DHT22;8163;50.118;5.342;2023-04-12T03:30:13;6.70;99.90
16118;DHT22;8163;50.118;5.342;2023-04-12T03:32:40;6.70;99.90
16118;DHT22;8163;50.118;5.342;2023-04-12T03:35:08;6.70;99.90
16118;DHT22;8163;50.118;5.342;2023-04-12T03:37:41;6.70;99.90
16118;DHT22;8163;50.118;5.342;2023-04-12T03:40:10;6.70;99.90
16118;DHT22;8163;50.118;5.342;2023-04-12T03:42:38;6.70;99.90
16118;DHT22;8163;50.118;5.342;2023-04-12T03:45:05;6.70;99.90
16118;DHT22;8163;50.118;5.342;2023-04-12T03:47:33;6.80;99.90
16118;DHT22;8163;50.118;5.342;2023-04-12T03:50:02;6.70;99.90
16118;DHT22;8163;50.118;5.342;2023-04-12T03:52:32;6.70;99.90
16118;DHT22;8163;50.118;5.342;2023-04-12T03:55:02;6.70;99.90
16118;DHT22;8163;50.118;5.342;2023-04-12T03:57:32;6.70;99.90
16118;DHT22;8163;50.118;5.342;2023-04-12T04:00:01;6.70;99.90
16118;DHT22;8163;50.118;5.342;2023-04-12T04:02:29;6.70;99.90
16118;DHT22;8163;50.118;5.342;2023-04-12T04:04:56;6.70;99.90
16118;DHT22;8163;50.118;5.342;2023-04-12T04:07:26;6.70;99.90
16118;DHT22;8163;50.118;5.342;2023-04-12T04:09:54;6.70;99.90
16118;DHT22;8163;50.118;5.342;2023-04-12T04:12:21;6.70;99.90
16118;DHT22;8163;50.118;5.342;2023-04-12T04:14:50;6.70;99.90
16118;DHT22;8163;50.118;5.342;2023-04-12T04:17:18;6.70;99.90
16118;DHT22;8163;50.118;5.342;2023-04-12T04:19:45;6.70;99.90
16118;DHT22;8163;50.118;5.342;2023-04-12T04:22:13;6.70;99.90
16118;DHT22;8163;50.118;5.342;2023-04-12T04:24:41;6.70;99.90
16118;DHT22;8163;50.118;5.342;2023-04-12T04:27:10;6.70;99.90
16118;DHT22;8163;50.118;5.342;2023-04-12T04:29:40;6.70;99.90
16118;DHT22;8163;50.118;5.342;2023-04-12T04:32:13;6.70;99.90
16118;DHT22;8163;50.118;5.342;2023-04-12T04:34:41;6.70;99.90
16118;DHT22;8163;50.118;5.342;2023-04-12T04:37:11;6.70;99.90
16118;DHT22;8163;50.118;5.342;2023-04-12T04:39:45;6.70;99.90
16118;DHT22;8163;50.118;5.342;2023-04-12T04:42:15;6.70;99.90
16118;DHT22;8163;50.118;5.342;2023-04-12T04:44:44;6.70;99.90
16118;DHT22;8163;50.118;5.342;2023-04-12T04:47:16;6.70;99.90
16118;DHT22;8163;50.118;5.342;2023-04-12T04:49:43;6.70;99.90
16118;DHT22;8163;50.118;5.342;2023-04-12T04:52:13;6.70;99.90
16118;DHT22;8163;50.118;5.342;2023-04-12T04:54:40;6.70;99.90
16118;DHT22;8163;50.118;5.342;2023-04-12T04:57:07;6.70;99.90
16118;DHT22;8163;50.118;5.342;2023-04-12T04:59:36;6.70;99.90
16118;DHT22;8163;50.118;5.342;2023-04-12T05:02:03;6.80;99.90
16118;DHT22;8163;50.118;5.342;2023-04-12T05:04:38;6.70;99.90
16118;DHT22;8163;50.118;5.342;2023-04-12T05:07:05;6.70;99.90
16118;DHT22;8163;50.118;5.342;2023-04-12T05:09:32;6.70;99.90
16118;DHT22;8163;50.118;5.342;2023-04-12T05:11:59;6.70;99.90
16118;DHT22;8163;50.118;5.342;2023-04-12T05:14:27;6.70;99.90
16118;DHT22;8163;50.118;5.342;2023-04-12T05:16:54;6.80;99.90
16118;DHT22;8163;50.118;5.342;2023-04-12T05:19:21;6.80;99.90
16118;DHT22;8163;50.118;5.342;2023-04-12T05:21:50;6.80;99.90
16118;DHT22;8163;50.118;5.342;2023-04-12T05:24:17;6.80;99.90
16118;DHT22;8163;50.118;5.342;2023-04-12T05:26:44;6.80;99.90
16118;DHT22;8163;50.118;5.342;2023-04-12T05:29:12;6.80;99.90
16118;DHT22;8163;50.118;5.342;2023-04-12T05:31:39;6.80;99.90
16118;DHT22;8163;50.118;5.342;2023-04-12T05:34:06;6.80;99.90
16118;DHT22;8163;50.118;5.342;2023-04-12T05:36:34;6.80;99.90
16118;DHT22;8163;50.118;5.342;2023-04-12T05:39:02;6.80;99.90
16118;DHT22;8163;50.118;5.342;2023-04-12T05:41:30;6.80;99.90
16118;DHT22;8163;50.118;5.342;2023-04-12T05:43:57;6.90;99.90
16118;DHT22;8163;50.118;5.342;2023-04-12T05:46:24;6.90;99.90
16118;DHT22;8163;50.118;5.342;2023-04-12T05:48:52;6.90;99.90
16118;DHT22;8163;50.118;5.342;2023-04-12T05:51:20;6.90;99.90
16118;DHT22;8163;50.118;5.342;2023-04-12T05:53:49;6.90;99.90
16118;DHT22;8163;50.118;5.342;2023-04-12T05:56:20;7.00;99.90
16118;DHT22;8163;50.118;5.342;2023-04-12T05:58:47;7.00;99.90
16118;DHT22;8163;50.118;5.342;2023-04-12T06:01:26;7.00;99.90
16118;DHT22;8163;50.118;5.342;2023-04-12T06:03:59;7.00;99.90
16118;DHT22;8163;50.118;5.342;2023-04-12T06:06:34;7.00;99.90
16118;DHT22;8163;50.118;5.342;2023-04-12T06:09:02;7.00;99.90
16118;DHT22;8163;50.118;5.342;2023-04-12T06:11:31;7.10;99.90
16118;DHT22;8163;50.118;5.342;2023-04-12T06:13:59;7.10;99.90
16118;DHT22;8163;50.118;5.342;2023-04-12T06:16:29;7.10;99.90
16118;DHT22;8163;50.118;5.342;2023-04-12T06:18:58;7.10;99.90
16118;DHT22;8163;50.118;5.342;2023-04-12T06:21:25;7.10;99.90
16118;DHT22;8163;50.118;5.342;2023-04-12T06:23:53;7.10;99.90
16118;DHT22;8163;50.118;5.342;2023-04-12T06:26:21;7.10;99.90
16118;DHT22;8163;50.118;5.342;2023-04-12T06:28:52;7.10;99.90
16118;DHT22;8163;50.118;5.342;2023-04-12T06:31:41;7.20;99.90
16118;DHT22;8163;50.118;5.342;2023-04-12T06:34:20;7.20;99.90
16118;DHT22;8163;50.118;5.342;2023-04-12T06:40:33;7.30;99.90
16118;DHT22;8163;50.118;5.342;2023-04-12T06:46:46;7.40;99.90
16118;DHT22;8163;50.118;5.342;2023-04-12T06:49:19;7.50;99.90
16118;DHT22;8163;50.118;5.342;2023-04-12T06:51:52;7.50;99.90
16118;DHT22;8163;50.118;5.342;2023-04-12T06:54:35;7.50;99.90
16118;DHT22;8163;50.118;5.342;2023-04-12T06:57:16;7.60;99.90
16118;DHT22;8163;50.118;5.342;2023-04-12T06:59:56;7.60;99.90
16118;DHT22;8163;50.118;5.342;2023-04-12T07:02:56;7.70;99.90
16118;DHT22;8163;50.118;5.342;2023-04-12T07:05:37;7.70;99.90
16118;DHT22;8163;50.118;5.342;2023-04-12T07:08:09;7.70;99.90
16118;DHT22;8163;50.118;5.342;2023-04-12T07:10:52;7.70;99.90
16118;DHT22;8163;50.118;5.342;2023-04-12T07:13:34;7.70;99.90
16118;DHT22;8163;50.118;5.342;2023-04-12T07:16:16;7.70;99.90
16118;DHT22;8163;50.118;5.342;2023-04-12T07:18:49;7.70;99.90
16118;DHT22;8163;50.118;5.342;2023-04-12T07:21:23;7.70;99.90
16118;DHT22;8163;50.118;5.342;2023-04-12T07:23:54;7.70;99.90
16118;DHT22;8163;50.118;5.342;2023-04-12T07:26:29;7.80;99.90
16118;DHT22;8163;50.118;5.342;2023-04-12T07:29:02;7.90;99.90
16118;DHT22;8163;50.118;5.342;2023-04-12T07:31:32;8.00;99.90
16118;DHT22;8163;50.118;5.342;2023-04-12T07:34:03;8.00;99.90
16118;DHT22;8163;50.118;5.342;2023-04-12T07:36:38;8.00;99.90
16118;DHT22;8163;50.118;5.342;2023-04-12T07:39:09;8.00;99.90
16118;DHT22;8163;50.118;5.342;2023-04-12T07:41:42;8.00;99.90
16118;DHT22;8163;50.118;5.342;2023-04-12T07:44:11;8.10;99.90
16118;DHT22;8163;50.118;5.342;2023-04-12T07:46:40;8.10;99.90
16118;DHT22;8163;50.118;5.342;2023-04-12T07:49:10;8.20;99.90
16118;DHT22;8163;50.118;5.342;2023-04-12T07:51:38;8.20;99.90
16118;DHT22;8163;50.118;5.342;2023-04-12T07:54:05;8.30;99.90
16118;DHT22;8163;50.118;5.342;2023-04-12T07:56:33;8.50;99.90
16118;DHT22;8163;50.118;5.342;2023-04-12T07:59:00;8.60;99.90
16118;DHT22;8163;50.118;5.342;2023-04-12T08:01:28;8.60;99.90
16118;DHT22;8163;50.118;5.342;2023-04-12T08:03:57;8.70;99.90
16118;DHT22;8163;50.118;5.342;2023-04-12T08:06:25;8.70;99.90
16118;DHT22;8163;50.118;5.342;2023-04-12T08:08:53;8.80;99.90
16118;DHT22;8163;50.118;5.342;2023-04-12T08:11:20;8.80;99.90
16118;DHT22;8163;50.118;5.342;2023-04-12T08:13:48;8.80;99.90
16118;DHT22;8163;50.118;5.342;2023-04-12T08:16:15;8.80;99.90
16118;DHT22;8163;50.118;5.342;2023-04-12T08:18:42;8.80;99.90
16118;DHT22;8163;50.118;5.342;2023-04-12T08:21:10;8.80;99.90
16118;DHT22;8163;50.118;5.342;2023-04-12T08:23:39;8.80;99.90
16118;DHT22;8163;50.118;5.342;2023-04-12T08:26:08;8.80;99.90
16118;DHT22;8163;50.118;5.342;2023-04-12T08:28:36;8.80;99.90
16118;DHT22;8163;50.118;5.342;2023-04-12T08:31:06;8.70;99.90
16118;DHT22;8163;50.118;5.342;2023-04-12T08:33:33;8.70;99.90
16118;DHT22;8163;50.118;5.342;2023-04-12T08:36:02;8.60;99.90
16118;DHT22;8163;50.118;5.342;2023-04-12T08:38:29;8.60;99.90
16118;DHT22;8163;50.118;5.342;2023-04-12T08:40:58;8.60;99.90
16118;DHT22;8163;50.118;5.342;2023-04-12T08:43:34;8.70;99.90
16118;DHT22;8163;50.118;5.342;2023-04-12T08:46:04;8.70;99.90
16118;DHT22;8163;50.118;5.342;2023-04-12T08:48:32;8.80;99.90
16118;DHT22;8163;50.118;5.342;2023-04-12T08:51:00;8.80;99.90
16118;DHT22;8163;50.118;5.342;2023-04-12T08:53:27;8.80;99.90
16118;DHT22;8163;50.118;5.342;2023-04-12T08:55:54;8.90;99.90
16118;DHT22;8163;50.118;5.342;2023-04-12T08:58:23;9.00;99.90
16118;DHT22;8163;50.118;5.342;2023-04-12T09:00:51;9.10;99.90
16118;DHT22;8163;50.118;5.342;2023-04-12T09:03:19;9.10;99.90
16118;DHT22;8163;50.118;5.342;2023-04-12T09:05:47;9.00;99.90
16118;DHT22;8163;50.118;5.342;2023-04-12T09:08:15;9.00;99.90
16118;DHT22;8163;50.118;5.342;2023-04-12T09:10:44;9.00;99.90
16118;DHT22;8163;50.118;5.342;2023-04-12T09:13:11;9.00;99.90
16118;DHT22;8163;50.118;5.342;2023-04-12T09:15:48;9.00;99.90
16118;DHT22;8163;50.118;5.342;2023-04-12T09:18:17;9.00;99.90
16118;DHT22;8163;50.118;5.342;2023-04-12T09:20:45;9.10;99.90
16118;DHT22;8163;50.118;5.342;2023-04-12T09:23:16;9.20;99.90
16118;DHT22;8163;50.118;5.342;2023-04-12T09:25:44;9.20;99.90
16118;DHT22;8163;50.118;5.342;2023-04-12T09:28:21;9.30;99.90
16118;DHT22;8163;50.118;5.342;2023-04-12T09:30:53;9.40;99.90
16118;DHT22;8163;50.118;5.342;2023-04-12T09:33:31;9.40;99.90
16118;DHT22;8163;50.118;5.342;2023-04-12T09:35:59;9.40;99.90
16118;DHT22;8163;50.118;5.342;2023-04-12T09:38:27;9.30;99.90
16118;DHT22;8163;50.118;5.342;2023-04-12T09:40:55;9.40;99.90
16118;DHT22;8163;50.118;5.342;2023-04-12T09:43:37;9.50;99.90
16118;DHT22;8163;50.118;5.342;2023-04-12T09:46:11;9.50;99.90
16118;DHT22;8163;50.118;5.342;2023-04-12T09:48:39;9.40;99.90
16118;DHT22;8163;50.118;5.342;2023-04-12T09:51:07;9.40;99.90
16118;DHT22;8163;50.118;5.342;2023-04-12T09:53:35;9.50;99.90
16118;DHT22;8163;50.118;5.342;2023-04-12T09:56:06;9.60;99.90
16118;DHT22;8163;50.118;5.342;2023-04-12T09:58:36;9.60;99.90
16118;DHT22;8163;50.118;5.342;2023-04-12T10:01:09;9.80;99.90
16118;DHT22;8163;50.118;5.342;2023-04-12T10:03:36;9.80;99.90
16118;DHT22;8163;50.118;5.342;2023-04-12T10:06:07;9.70;99.90
16118;DHT22;8163;50.118;5.342;2023-04-12T10:08:38;9.60;99.90
16118;DHT22;8163;50.118;5.342;2023-04-12T10:11:05;9.60;99.90
16118;DHT22;8163;50.118;5.342;2023-04-12T10:13:35;9.50;99.90
16118;DHT22;8163;50.118;5.342;2023-04-12T10:16:03;9.40;99.90
16118;DHT22;8163;50.118;5.342;2023-04-12T10:18:34;9.50;99.90
16118;DHT22;8163;50.118;5.342;2023-04-12T10:21:03;9.60;99.90
16118;DHT22;8163;50.118;5.342;2023-04-12T10:23:31;9.70;99.90
16118;DHT22;8163;50.118;5.342;2023-04-12T10:26:01;9.70;99.90
16118;DHT22;8163;50.118;5.342;2023-04-12T10:28:32;9.70;99.90
16118;DHT22;8163;50.118;5.342;2023-04-12T10:31:25;9.70;99.90
16118;DHT22;8163;50.118;5.342;2023-04-12T10:33:55;9.70;99.90
16118;DHT22;8163;50.118;5.342;2023-04-12T10:36:49;9.70;99.90
16118;DHT22;8163;50.118;5.342;2023-04-12T10:39:16;9.60;99.90
16118;DHT22;8163;50.118;5.342;2023-04-12T10:42:14;9.60;99.90
16118;DHT22;8163;50.118;5.342;2023-04-12T10:44:42;9.70;99.90
16118;DHT22;8163;50.118;5.342;2023-04-12T10:47:09;9.70;99.90
16118;DHT22;8163;50.118;5.342;2023-04-12T10:49:38;9.70;99.90
16118;DHT22;8163;50.118;5.342;2023-04-12T10:52:14;9.80;99.90
16118;DHT22;8163;50.118;5.342;2023-04-12T10:54:43;9.80;99.90
16118;DHT22;8163;50.118;5.342;2023-04-12T10:57:43;9.80;99.90
16118;DHT22;8163;50.118;5.342;2023-04-12T11:00:14;9.90;99.90
16118;DHT22;8163;50.118;5.342;2023-04-12T11:03:06;10.10;99.90
16118;DHT22;8163;50.118;5.342;2023-04-12T11:05:57;10.40;99.90
16118;DHT22;8163;50.118;5.342;2023-04-12T11:08:31;10.80;99.90
16118;DHT22;8163;50.118;5.342;2023-04-12T11:11:00;11.80;99.90
16118;DHT22;8163;50.118;5.342;2023-04-12T11:13:28;13.30;99.90
16118;DHT22;8163;50.118;5.342;2023-04-12T11:16:00;14.00;99.90
16118;DHT22;8163;50.118;5.342;2023-04-12T11:18:28;15.20;99.90
16118;DHT22;8163;50.118;5.342;2023-04-12T11:20:57;15.80;99.90
16118;DHT22;8163;50.118;5.342;2023-04-12T11:23:24;16.20;99.90
16118;DHT22;8163;50.118;5.342;2023-04-12T11:25:52;16.70;99.90
16118;DHT22;8163;50.118;5.342;2023-04-12T11:28:19;17.40;99.90
16118;DHT22;8163;50.118;5.342;2023-04-12T11:30:50;17.30;99.90
16118;DHT22;8163;50.118;5.342;2023-04-12T11:33:32;16.50;99.90
16118;DHT22;8163;50.118;5.342;2023-04-12T11:36:04;15.40;99.90
16118;DHT22;8163;50.118;5.342;2023-04-12T11:38:32;14.60;99.90
16118;DHT22;8163;50.118;5.342;2023-04-12T11:41:00;14.00;99.90
16118;DHT22;8163;50.118;5.342;2023-04-12T11:43:27;13.60;99.90
16118;DHT22;8163;50.118;5.342;2023-04-12T11:45:56;13.60;99.90
16118;DHT22;8163;50.118;5.342;2023-04-12T11:48:24;13.60;99.90
16118;DHT22;8163;50.118;5.342;2023-04-12T11:50:51;13.60;99.90
16118;DHT22;8163;50.118;5.342;2023-04-12T11:53:20;14.20;99.90
16118;DHT22;8163;50.118;5.342;2023-04-12T11:55:49;15.30;99.90
16118;DHT22;8163;50.118;5.342;2023-04-12T11:58:21;15.80;99.90
16118;DHT22;8163;50.118;5.342;2023-04-12T12:00:48;15.70;99.90
16118;DHT22;8163;50.118;5.342;2023-04-12T12:03:16;15.70;99.90
16118;DHT22;8163;50.118;5.342;2023-04-12T12:05:44;15.80;99.90
16118;DHT22;8163;50.118;5.342;2023-04-12T12:08:12;15.70;99.90
16118;DHT22;8163;50.118;5.342;2023-04-12T12:10:41;15.40;99.90
16118;DHT22;8163;50.118;5.342;2023-04-12T12:13:11;15.10;99.90
16118;DHT22;8163;50.118;5.342;2023-04-12T12:15:42;14.90;99.90
16118;DHT22;8163;50.118;5.342;2023-04-12T12:18:09;15.50;99.90
16118;DHT22;8163;50.118;5.342;2023-04-12T12:20:40;15.90;99.90
16118;DHT22;8163;50.118;5.342;2023-04-12T12:23:08;16.60;99.90
16118;DHT22;8163;50.118;5.342;2023-04-12T12:25:35;17.20;99.90
16118;DHT22;8163;50.118;5.342;2023-04-12T12:28:04;17.60;99.90
16118;DHT22;8163;50.118;5.342;2023-04-12T12:30:37;17.90;99.90
16118;DHT22;8163;50.118;5.342;2023-04-12T12:33:05;18.40;99.90
16118;DHT22;8163;50.118;5.342;2023-04-12T12:35:34;18.60;99.90
16118;DHT22;8163;50.118;5.342;2023-04-12T12:38:05;18.60;99.90
16118;DHT22;8163;50.118;5.342;2023-04-12T12:40:33;18.30;99.90
16118;DHT22;8163;50.118;5.342;2023-04-12T12:43:06;17.60;99.90
16118;DHT22;8163;50.118;5.342;2023-04-12T12:45:33;16.80;99.90
16118;DHT22;8163;50.118;5.342;2023-04-12T12:48:02;15.90;99.90
16118;DHT22;8163;50.118;5.342;2023-04-12T12:50:31;15.20;99.90
16118;DHT22;8163;50.118;5.342;2023-04-12T12:52:59;14.70;99.90
16118;DHT22;8163;50.118;5.342;2023-04-12T12:55:28;14.40;99.90
16118;DHT22;8163;50.118;5.342;2023-04-12T12:57:57;14.20;99.90
16118;DHT22;8163;50.118;5.342;2023-04-12T13:00:27;14.00;99.90
16118;DHT22;8163;50.118;5.342;2023-04-12T13:02:54;13.90;99.90
16118;DHT22;8163;50.118;5.342;2023-04-12T13:05:23;13.60;99.90
16118;DHT22;8163;50.118;5.342;2023-04-12T13:07:50;13.30;99.90
16118;DHT22;8163;50.118;5.342;2023-04-12T13:10:17;13.00;99.90
16118;DHT22;8163;50.118;5.342;2023-04-12T13:12:44;12.80;99.90
16118;DHT22;8163;50.118;5.342;2023-04-12T13:15:11;12.80;99.90
16118;DHT22;8163;50.118;5.342;2023-04-12T13:17:40;12.80;99.90
16118;DHT22;8163;50.118;5.342;2023-04-12T13:20:07;13.10;99.90
16118;DHT22;8163;50.118;5.342;2023-04-12T13:22:35;13.70;99.90
16118;DHT22;8163;50.118;5.342;2023-04-12T13:25:02;14.30;99.90
16118;DHT22;8163;50.118;5.342;2023-04-12T13:27:30;14.80;99.90
16118;DHT22;8163;50.118;5.342;2023-04-12T13:29:57;15.10;99.90
16118;DHT22;8163;50.118;5.342;2023-04-12T13:32:24;15.30;99.90
16118;DHT22;8163;50.118;5.342;2023-04-12T13:34:54;15.40;99.90
16118;DHT22;8163;50.118;5.342;2023-04-12T13:37:21;15.40;99.90
16118;DHT22;8163;50.118;5.342;2023-04-12T13:39:55;15.50;99.90
16118;DHT22;8163;50.118;5.342;2023-04-12T13:42:45;15.50;99.90
16118;DHT22;8163;50.118;5.342;2023-04-12T13:45:23;15.50;99.90
16118;DHT22;8163;50.118;5.342;2023-04-12T13:47:51;15.50;99.90
16118;DHT22;8163;50.118;5.342;2023-04-12T13:50:20;15.60;99.90
16118;DHT22;8163;50.118;5.342;2023-04-12T13:52:47;15.40;99.90
16118;DHT22;8163;50.118;5.342;2023-04-12T13:55:14;15.00;99.90
16118;DHT22;8163;50.118;5.342;2023-04-12T13:57:41;14.70;99.90
16118;DHT22;8163;50.118;5.342;2023-04-12T14:36:46;12.20;99.90
16118;DHT22;8163;50.118;5.342;2023-04-12T14:39:15;12.40;99.90
16118;DHT22;8163;50.118;5.342;2023-04-12T14:41:44;12.40;99.90
16118;DHT22;8163;50.118;5.342;2023-04-12T14:44:11;12.40;99.90
16118;DHT22;8163;50.118;5.342;2023-04-12T14:46:39;12.60;99.90
16118;DHT22;8163;50.118;5.342;2023-04-12T14:49:06;12.60;99.90
16118;DHT22;8163;50.118;5.342;2023-04-12T14:51:34;12.60;99.90
16118;DHT22;8163;50.118;5.342;2023-04-12T14:54:03;12.50;99.90
16118;DHT22;8163;50.118;5.342;2023-04-12T14:56:32;12.50;99.90
16118;DHT22;8163;50.118;5.342;2023-04-12T14:59:04;12.50;99.90
16118;DHT22;8163;50.118;5.342;2023-04-12T15:01:38;12.40;99.90
16118;DHT22;8163;50.118;5.342;2023-04-12T15:04:10;12.50;99.90
16118;DHT22;8163;50.118;5.342;2023-04-12T15:06:41;12.70;99.90
16118;DHT22;8163;50.118;5.342;2023-04-12T15:09:15;12.60;99.90
16118;DHT22;8163;50.118;5.342;2023-04-12T15:11:51;12.50;99.90
16118;DHT22;8163;50.118;5.342;2023-04-12T15:14:33;12.40;99.90
16118;DHT22;8163;50.118;5.342;2023-04-12T15:17:02;12.30;99.90
16118;DHT22;8163;50.118;5.342;2023-04-12T15:19:35;12.30;99.90
16118;DHT22;8163;50.118;5.342;2023-04-12T15:22:04;12.40;99.90
16118;DHT22;8163;50.118;5.342;2023-04-12T15:24:34;12.50;99.90
16118;DHT22;8163;50.118;5.342;2023-04-12T15:27:04;12.40;99.90
16118;DHT22;8163;50.118;5.342;2023-04-12T15:29:33;12.40;99.90
16118;DHT22;8163;50.118;5.342;2023-04-12T15:32:05;12.30;99.90
16118;DHT22;8163;50.118;5.342;2023-04-12T15:34:34;12.10;99.90
16118;DHT22;8163;50.118;5.342;2023-04-12T15:37:01;11.90;99.90
16118;DHT22;8163;50.118;5.342;2023-04-12T15:39:31;11.80;99.90
16118;DHT22;8163;50.118;5.342;2023-04-12T15:41:59;11.80;99.90
16118;DHT22;8163;50.118;5.342;2023-04-12T15:44:27;11.70;99.90
16118;DHT22;8163;50.118;5.342;2023-04-12T15:46:56;11.60;99.90
16118;DHT22;8163;50.118;5.342;2023-04-12T15:49:24;11.50;99.90
16118;DHT22;8163;50.118;5.342;2023-04-12T15:51:53;11.40;99.90
16118;DHT22;8163;50.118;5.342;2023-04-12T15:54:22;11.50;99.90
16118;DHT22;8163;50.118;5.342;2023-04-12T15:56:49;11.60;99.90
16118;DHT22;8163;50.118;5.342;2023-04-12T15:59:20;11.70;99.90
16118;DHT22;8163;50.118;5.342;2023-04-12T16:01:48;11.70;99.90
16118;DHT22;8163;50.118;5.342;2023-04-12T16:04:16;11.80;99.90
16118;DHT22;8163;50.118;5.342;2023-04-12T16:06:44;11.90;99.90
16118;DHT22;8163;50.118;5.342;2023-04-12T16:09:11;11.90;99.90
16118;DHT22;8163;50.118;5.342;2023-04-12T16:11:39;11.80;99.90
16118;DHT22;8163;50.118;5.342;2023-04-12T16:14:08;11.70;99.90
16118;DHT22;8163;50.118;5.342;2023-04-12T16:16:37;11.60;99.90
16118;DHT22;8163;50.118;5.342;2023-04-12T16:19:10;11.60;99.90
16118;DHT22;8163;50.118;5.342;2023-04-12T16:21:39;11.60;99.90
16118;DHT22;8163;50.118;5.342;2023-04-12T16:24:10;11.50;99.90
16118;DHT22;8163;50.118;5.342;2023-04-12T16:26:38;11.30;99.90
16118;DHT22;8163;50.118;5.342;2023-04-12T16:29:07;11.30;99.90
16118;DHT22;8163;50.118;5.342;2023-04-12T16:31:37;11.10;99.90
16118;DHT22;8163;50.118;5.342;2023-04-12T16:34:04;11.00;99.90
16118;DHT22;8163;50.118;5.342;2023-04-12T16:36:33;10.90;99.90
16118;DHT22;8163;50.118;5.342;2023-04-12T16:39:00;10.80;99.90
16118;DHT22;8163;50.118;5.342;2023-04-12T16:41:30;10.60;99.90
16118;DHT22;8163;50.118;5.342;2023-04-12T16:43:58;10.60;99.90
16118;DHT22;8163;50.118;5.342;2023-04-12T16:46:28;10.50;99.90
16118;DHT22;8163;50.118;5.342;2023-04-12T16:48:57;10.40;99.90
16118;DHT22;8163;50.118;5.342;2023-04-12T16:51:28;10.40;99.90
16118;DHT22;8163;50.118;5.342;2023-04-12T16:53:55;10.30;99.90
16118;DHT22;8163;50.118;5.342;2023-04-12T16:56:23;10.20;99.90
16118;DHT22;8163;50.118;5.342;2023-04-12T16:58:51;10.10;99.90